Wetterdaten: Jahr 2017
Datum Temp. A. Feuchte A. Luftdruck Regen Wind Richtung Sonnenschein UV Solar Windben
01.01.2017 0,7 C 77 % 1018,1 hPa 0,0 l/m 6,3 km/h O 3,42 h 0,8 UV-I 98 W/m 11,0 km/h
02.01.2017 1,0 C 95 % 1021,8 hPa 6,6 l/m 7,6 km/h W-SW 0,00 h 0,0 UV-I 29 W/m 13,0 km/h
03.01.2017 2,8 C 92 % 1018,6 hPa 2,8 l/m 20,2 km/h W-SW 0,17 h 0,5 UV-I 36 W/m 38,7 km/h
04.01.2017 3,2 C 88 % 1012,7 hPa 3,6 l/m 12,9 km/h W-SW 0,17 h 0,6 UV-I 43 W/m 22,2 km/h
05.01.2017 -2,2 C 73 % 1033,4 hPa 0,0 l/m 3,2 km/h NO 3,33 h 0,8 UV-I 120 W/m 7,7 km/h
06.01.2017 -5,5 C 73 % 1040,0 hPa 0,0 l/m 4,7 km/h O 5,33 h 0,8 UV-I 138 W/m 9,4 km/h
07.01.2017 -1,6 C 85 % 1030,2 hPa 0,8 l/m 6,9 km/h W-SW 0,00 h 0,0 UV-I 32 W/m 12,1 km/h
08.01.2017 0,8 C 97 % 1030,9 hPa 1,2 l/m 2,5 km/h W-SW 0,00 h 0,5 UV-I 34 W/m 5,7 km/h
09.01.2017 1,9 C 89 % 1020,8 hPa 0,0 l/m 5,3 km/h O 0,75 h 0,8 UV-I 63 W/m 13,0 km/h
10.01.2017 2,2 C 88 % 1010,7 hPa 1,0 l/m 7,1 km/h O-SO 0,00 h 0,0 UV-I 29 W/m 14,6 km/h
11.01.2017 4,9 C 85 % 1004,5 hPa 3,8 l/m 17,8 km/h W-SW 0,00 h 0,0 UV-I 26 W/m 34,3 km/h
12.01.2017 4,1 C 84 % 1000,6 hPa 1,6 l/m 13,0 km/h W-SW 0,25 h 0,6 UV-I 57 W/m 24,6 km/h
13.01.2017 1,3 C 90 % 996,5 hPa 3,4 l/m 13,3 km/h W-SW 0,00 h 0,5 UV-I 31 W/m 25,9 km/h
14.01.2017 1,6 C 90 % 1010,3 hPa 6,0 l/m 12,6 km/h W-SW 1,50 h 0,6 UV-I 81 W/m 24,5 km/h
15.01.2017 0,1 C 93 % 1020,2 hPa 0,0 l/m 6,2 km/h W-SW 0,25 h 0,0 UV-I 37 W/m 10,8 km/h
16.01.2017 -0,9 C 86 % 1029,2 hPa 0,0 l/m 2,7 km/h NO 3,83 h 0,9 UV-I 144 W/m 6,1 km/h
17.01.2017 -2,4 C 89 % 1038,2 hPa 0,0 l/m 2,9 km/h NW 0,00 h 0,6 UV-I 47 W/m 5,3 km/h
18.01.2017 -3,0 C 83 % 1039,7 hPa 0,0 l/m 3,9 km/h O-SO 1,50 h 0,8 UV-I 101 W/m 8,5 km/h
19.01.2017 -1,1 C 67 % 1038,0 hPa 0,0 l/m 4,6 km/h O 5,17 h 1,0 UV-I 150 W/m 6,9 km/h
20.01.2017 1,6 C 57 % 1034,8 hPa 0,0 l/m 4,3 km/h O 4,67 h 0,9 UV-I 131 W/m 7,3 km/h
21.01.2017 0,6 C 70 % 1030,1 hPa 0,0 l/m 6,7 km/h O 6,00 h 1,0 UV-I 163 W/m 12,2 km/h
22.01.2017 -1,3 C 75 % 1026,4 hPa 0,0 l/m 4,1 km/h O 6,08 h 1,0 UV-I 166 W/m 7,8 km/h
23.01.2017 -3,8 C 95 % 1027,1 hPa 0,0 l/m 4,2 km/h W-SW 0,00 h 0,5 UV-I 29 W/m 6,1 km/h
24.01.2017 -0,5 C 92 % 1030,2 hPa 0,0 l/m 2,2 km/h O-NO 0,00 h 0,6 UV-I 58 W/m 4,1 km/h
25.01.2017 -0,5 C 82 % 1031,0 hPa 0,0 l/m 7,5 km/h O 0,00 h 0,7 UV-I 69 W/m 15,0 km/h
26.01.2017 -0,3 C 76 % 1025,1 hPa 0,0 l/m 7,1 km/h O 6,33 h 1,0 UV-I 176 W/m 15,0 km/h
27.01.2017 3,2 C 60 % 1020,3 hPa 0,0 l/m 9,5 km/h O 6,33 h 1,0 UV-I 157 W/m 18,6 km/h
28.01.2017 7,8 C 61 % 1017,6 hPa 0,0 l/m 6,0 km/h O 6,08 h 1,1 UV-I 171 W/m 10,6 km/h
29.01.2017 4,6 C 80 % 1019,2 hPa 0,0 l/m 8,0 km/h O-SO 3,58 h 0,8 UV-I 127 W/m 17,0 km/h
30.01.2017 4,4 C 92 % 1010,1 hPa 3,8 l/m 9,4 km/h O 0,00 h 0,5 UV-I 36 W/m 19,4 km/h
31.01.2017 1,7 C 96 % 1017,7 hPa 0,0 l/m 5,0 km/h W 0,00 h 0,0 UV-I 29 W/m 8,5 km/h
01.02.2017 2,6 C 83 % 1015,8 hPa 0,0 l/m 7,9 km/h O 4,58 h 1,1 UV-I 182 W/m 16,6 km/h
02.02.2017 6,5 C 86 % 1008,1 hPa 1,0 l/m 8,9 km/h O 4,75 h 1,1 UV-I 170 W/m 18,6 km/h
03.02.2017 7,8 C 89 % 1004,0 hPa 0,6 l/m 3,3 km/h O 0,42 h 0,6 UV-I 49 W/m 6,5 km/h
04.02.2017 7,1 C 79 % 1000,7 hPa 0,0 l/m 5,9 km/h O 3,75 h 1,0 UV-I 149 W/m 13,0 km/h
05.02.2017 4,9 C 83 % 1005,0 hPa 2,2 l/m 4,1 km/h O 2,00 h 1,0 UV-I 123 W/m 6,5 km/h
06.02.2017 3,0 C 88 % 1018,9 hPa 0,0 l/m 3,5 km/h NO 0,00 h 0,6 UV-I 59 W/m 8,1 km/h
07.02.2017 0,9 C 87 % 1019,6 hPa 0,0 l/m 9,6 km/h O-NO 0,00 h 0,5 UV-I 33 W/m 18,6 km/h
08.02.2017 -0,0 C 82 % 1026,5 hPa 0,0 l/m 8,8 km/h O-NO 0,42 h 0,7 UV-I 92 W/m 20,2 km/h
09.02.2017 -1,1 C 77 % 1028,1 hPa 0,0 l/m 11,7 km/h O-NO 3,50 h 0,9 UV-I 133 W/m 24,3 km/h
10.02.2017 -0,5 C 81 % 1023,5 hPa 0,0 l/m 8,1 km/h O-NO 0,00 h 0,6 UV-I 57 W/m 16,8 km/h
11.02.2017 1,9 C 83 % 1022,4 hPa 0,0 l/m 10,2 km/h O-NO 1,17 h 0,8 UV-I 110 W/m 20,2 km/h
12.02.2017 0,9 C 85 % 1029,8 hPa 0,0 l/m 11,3 km/h O 0,17 h 0,9 UV-I 95 W/m 19,0 km/h
13.02.2017 3,8 C 64 % 1031,3 hPa 0,0 l/m 8,5 km/h O-NO 7,42 h 1,2 UV-I 227 W/m 19,0 km/h
14.02.2017 5,2 C 57 % 1031,2 hPa 0,0 l/m 5,5 km/h O-NO 7,58 h 1,3 UV-I 242 W/m 11,8 km/h
15.02.2017 7,6 C 60 % 1032,3 hPa 0,0 l/m 3,4 km/h O 7,50 h 1,4 UV-I 237 W/m 6,9 km/h
16.02.2017 9,2 C 76 % 1027,8 hPa 0,0 l/m 5,8 km/h SW 1,33 h 0,9 UV-I 117 W/m 10,2 km/h
17.02.2017 6,4 C 93 % 1024,4 hPa 1,4 l/m 8,6 km/h W-SW 0,00 h 0,6 UV-I 29 W/m 17,0 km/h
18.02.2017 5,5 C 79 % 1026,2 hPa 0,0 l/m 6,1 km/h W 1,58 h 1,1 UV-I 148 W/m 9,7 km/h
19.02.2017 5,8 C 88 % 1020,7 hPa 1,8 l/m 8,3 km/h W-SW 0,42 h 0,9 UV-I 74 W/m 15,0 km/h
20.02.2017 8,8 C 93 % 1014,0 hPa 2,2 l/m 14,6 km/h SW 0,00 h 0,6 UV-I 44 W/m 24,3 km/h
21.02.2017 8,5 C 79 % 1012,9 hPa 0,4 l/m 10,4 km/h W-SW 1,92 h 1,2 UV-I 140 W/m 18,2 km/h
22.02.2017 8,8 C 92 % 1004,1 hPa 10,6 l/m 15,3 km/h W-SW 0,00 h 0,5 UV-I 40 W/m 29,0 km/h
23.02.2017 8,2 C 83 % 992,7 hPa 10,4 l/m 18,8 km/h W-SW 0,42 h 0,6 UV-I 58 W/m 35,1 km/h
24.02.2017 3,6 C 79 % 1013,7 hPa 3,6 l/m 9,9 km/h W-SW 3,25 h 1,2 UV-I 184 W/m 17,0 km/h
25.02.2017 6,3 C 65 % 1017,4 hPa 0,0 l/m 7,4 km/h S-SW 2,83 h 1,4 UV-I 168 W/m 14,6 km/h
26.02.2017 9,9 C 70 % 1010,5 hPa 0,0 l/m 9,2 km/h SW 0,08 h 0,9 UV-I 102 W/m 17,4 km/h
27.02.2017 10,0 C 76 % 997,4 hPa 1,4 l/m 9,1 km/h S 0,67 h 1,0 UV-I 123 W/m 16,2 km/h
28.02.2017 5,1 C 77 % 992,4 hPa 3,0 l/m 11,9 km/h SW 2,50 h 1,4 UV-I 171 W/m 23,4 km/h
01.03.2017 6,0 C 79 % 999,6 hPa 5,2 l/m 8,6 km/h SW 2,42 h 1,4 UV-I 174 W/m 16,2 km/h
02.03.2017 5,9 C 79 % 1009,5 hPa 5,2 l/m 19,6 km/h W-SW 1,42 h 0,8 UV-I 97 W/m 35,5 km/h
03.03.2017 8,2 C 60 % 1005,0 hPa 0,0 l/m 6,1 km/h O 4,33 h 1,4 UV-I 192 W/m 13,8 km/h
04.03.2017 11,2 C 62 % 992,9 hPa 0,0 l/m 7,7 km/h O 1,83 h 1,2 UV-I 162 W/m 14,1 km/h
05.03.2017 8,0 C 71 % 998,4 hPa 0,6 l/m 9,8 km/h S-SW 1,75 h 1,4 UV-I 159 W/m 20,2 km/h
06.03.2017 5,9 C 86 % 1001,6 hPa 2,2 l/m 5,3 km/h W-SW 0,08 h 0,9 UV-I 115 W/m 10,1 km/h
07.03.2017 5,6 C 92 % 1015,3 hPa 1,6 l/m 7,9 km/h W 0,67 h 1,1 UV-I 114 W/m 13,8 km/h
08.03.2017 6,5 C 90 % 1014,5 hPa 10,8 l/m 9,0 km/h SO 0,00 h 0,7 UV-I 63 W/m 17,8 km/h
09.03.2017 8,0 C 83 % 1018,0 hPa 2,4 l/m 12,9 km/h W-SW 1,92 h 1,2 UV-I 125 W/m 21,4 km/h
10.03.2017 6,6 C 74 % 1027,2 hPa 0,0 l/m 7,4 km/h W-SW 3,42 h 1,6 UV-I 233 W/m 12,6 km/h
11.03.2017 8,4 C 62 % 1021,8 hPa 0,0 l/m 6,9 km/h O 7,08 h 1,8 UV-I 274 W/m 15,8 km/h
12.03.2017 7,2 C 62 % 1018,3 hPa 0,0 l/m 9,9 km/h O-NO 8,92 h 1,9 UV-I 314 W/m 19,0 km/h
13.03.2017 9,5 C 63 % 1026,0 hPa 0,0 l/m 5,4 km/h W-SW 8,17 h 2,0 UV-I 302 W/m 10,6 km/h
14.03.2017 10,3 C 73 % 1030,0 hPa 0,0 l/m 8,4 km/h W-SW 3,42 h 1,6 UV-I 205 W/m 14,6 km/h
15.03.2017 9,9 C 68 % 1030,5 hPa 0,0 l/m 8,1 km/h W-SW 5,83 h 1,8 UV-I 259 W/m 13,8 km/h
16.03.2017 10,3 C 63 % 1021,1 hPa 0,0 l/m 3,6 km/h S-SW 9,08 h 2,1 UV-I 322 W/m 7,3 km/h
17.03.2017 8,1 C 66 % 1012,2 hPa 0,0 l/m 9,8 km/h W-SW 1,42 h 1,3 UV-I 139 W/m 19,0 km/h
18.03.2017 8,5 C 87 % 1005,9 hPa 4,4 l/m 13,7 km/h W-SW 0,00 h 0,8 UV-I 59 W/m 22,7 km/h
19.03.2017 10,3 C 89 % 1006,7 hPa 2,0 l/m 13,8 km/h W-SW 0,00 h 0,6 UV-I 49 W/m 26,7 km/h
20.03.2017 10,5 C 86 % 1006,2 hPa 1,6 l/m 10,2 km/h SW 1,50 h 1,3 UV-I 128 W/m 21,3 km/h
21.03.2017 7,8 C 70 % 1010,4 hPa 0,6 l/m 9,0 km/h W-SW 2,42 h 1,4 UV-I 167 W/m 16,6 km/h
22.03.2017 8,0 C 61 % 1015,2 hPa 0,0 l/m 6,7 km/h O 6,25 h 1,8 UV-I 258 W/m 14,6 km/h
23.03.2017 9,3 C 75 % 1018,9 hPa 0,0 l/m 6,4 km/h O-NO 6,08 h 1,9 UV-I 291 W/m 12,6 km/h
24.03.2017 9,3 C 65 % 1030,1 hPa 0,0 l/m 7,5 km/h O-NO 9,17 h 2,3 UV-I 368 W/m 15,8 km/h
25.03.2017 9,2 C 54 % 1027,8 hPa 0,0 l/m 4,5 km/h O 9,33 h 2,3 UV-I 352 W/m 8,1 km/h
26.03.2017 9,4 C 61 % 1025,0 hPa 0,0 l/m 5,3 km/h O 9,75 h 2,4 UV-I 372 W/m 9,3 km/h
27.03.2017 12,1 C 45 % 1023,4 hPa 0,0 l/m 6,8 km/h O 10,33 h 2,5 UV-I 387 W/m 11,8 km/h
28.03.2017 14,5 C 52 % 1020,4 hPa 0,0 l/m 4,5 km/h O 10,00 h 2,5 UV-I 371 W/m 8,1 km/h
29.03.2017 13,0 C 72 % 1023,9 hPa 0,0 l/m 8,1 km/h SW 0,83 h 1,3 UV-I 139 W/m 15,0 km/h
30.03.2017 17,0 C 60 % 1023,3 hPa 0,0 l/m 6,7 km/h SW 6,58 h 2,6 UV-I 330 W/m 13,4 km/h
31.03.2017 18,9 C 44 % 1013,0 hPa 0,0 l/m 8,9 km/h O 9,50 h 2,4 UV-I 340 W/m 15,8 km/h
01.04.2017 14,4 C 76 % 1011,6 hPa 1,8 l/m 6,3 km/h O-SO 3,58 h 1,7 UV-I 207 W/m 11,8 km/h
02.04.2017 13,3 C 68 % 1020,3 hPa 0,0 l/m 4,2 km/h W-SW 5,58 h 2,1 UV-I 279 W/m 6,5 km/h
03.04.2017 9,3 C 77 % 1026,3 hPa 0,0 l/m 4,4 km/h W-NW 4,50 h 2,1 UV-I 259 W/m 8,5 km/h
04.04.2017 9,7 C 68 % 1024,1 hPa 0,0 l/m 4,3 km/h O 10,33 h 2,6 UV-I 399 W/m 10,2 km/h
05.04.2017 8,5 C 70 % 1024,0 hPa 0,0 l/m 7,6 km/h W-SW 4,50 h 1,9 UV-I 217 W/m 14,2 km/h
06.04.2017 8,3 C 71 % 1026,1 hPa 0,0 l/m 10,6 km/h W 2,83 h 1,8 UV-I 236 W/m 18,6 km/h
07.04.2017 10,5 C 75 % 1023,7 hPa 0,0 l/m 10,8 km/h W-SW 0,67 h 1,4 UV-I 139 W/m 18,2 km/h
08.04.2017 11,5 C 71 % 1024,4 hPa 0,0 l/m 2,7 km/h W-SW 2,33 h 1,7 UV-I 207 W/m 6,1 km/h
09.04.2017 14,6 C 61 % 1021,7 hPa 0,0 l/m 2,8 km/h O 10,92 h 2,9 UV-I 399 W/m 4,9 km/h
10.04.2017 11,4 C 63 % 1019,4 hPa 0,0 l/m 8,5 km/h W 2,42 h 1,2 UV-I 162 W/m 16,6 km/h
11.04.2017 9,3 C 66 % 1023,8 hPa 0,0 l/m 9,2 km/h W-SW 2,00 h 1,7 UV-I 182 W/m 17,0 km/h
12.04.2017 9,9 C 75 % 1013,7 hPa 1,4 l/m 13,1 km/h W-SW 1,75 h 1,6 UV-I 181 W/m 21,8 km/h
13.04.2017 8,6 C 80 % 1014,0 hPa 1,0 l/m 10,6 km/h W-SW 1,00 h 1,2 UV-I 145 W/m 16,2 km/h
14.04.2017 8,6 C 73 % 1015,8 hPa 0,0 l/m 7,8 km/h W-SW 1,75 h 1,7 UV-I 172 W/m 12,6 km/h
15.04.2017 8,5 C 71 % 1013,3 hPa 1,6 l/m 12,7 km/h W-SW 0,75 h 1,0 UV-I 99 W/m 21,0 km/h
16.04.2017 7,4 C 78 % 1017,8 hPa 0,0 l/m 7,4 km/h W-SW 4,75 h 2,1 UV-I 273 W/m 13,8 km/h
17.04.2017 6,5 C 71 % 1017,3 hPa 4,0 l/m 7,2 km/h W-SW 1,58 h 2,0 UV-I 198 W/m 15,8 km/h
18.04.2017 4,6 C 76 % 1027,0 hPa 0,4 l/m 5,2 km/h W 1,42 h 1,7 UV-I 192 W/m 11,8 km/h
19.04.2017 4,3 C 61 % 1035,3 hPa 0,0 l/m 3,7 km/h NO 4,50 h 1,9 UV-I 271 W/m 8,1 km/h
20.04.2017 7,1 C 52 % 1034,8 hPa 0,0 l/m 5,0 km/h O-SO 10,42 h 2,8 UV-I 415 W/m 9,7 km/h
21.04.2017 10,5 C 65 % 1026,5 hPa 0,0 l/m 12,2 km/h SW 1,25 h 1,7 UV-I 161 W/m 19,4 km/h
22.04.2017 7,4 C 70 % 1022,8 hPa 2,4 l/m 11,4 km/h W 8,00 h 2,8 UV-I 389 W/m 22,5 km/h
23.04.2017 6,3 C 69 % 1023,7 hPa 0,0 l/m 7,7 km/h W-SW 7,50 h 3,1 UV-I 366 W/m 15,3 km/h
24.04.2017 10,5 C 63 % 1012,1 hPa 0,0 l/m 8,1 km/h W-SW 12,00 h 3,1 UV-I 491 W/m 22,1 km/h
25.04.2017 6,7 C 69 % 1007,6 hPa 3,8 l/m 8,0 km/h W-SW 3,83 h 2,2 UV-I 251 W/m 14,9 km/h
26.04.2017 6,6 C 67 % 1012,4 hPa 0,2 l/m 4,3 km/h SW 6,58 h 2,4 UV-I 340 W/m 8,9 km/h
27.04.2017 7,0 C 61 % 1015,3 hPa 0,0 l/m 4,6 km/h W 6,33 h 2,2 UV-I 314 W/m 8,9 km/h
28.04.2017 8,6 C 67 % 1014,1 hPa 0,0 l/m 5,2 km/h W-SW 5,08 h 2,1 UV-I 279 W/m 11,8 km/h
29.04.2017 7,8 C 64 % 1018,0 hPa 0,0 l/m 4,6 km/h W-SW 1,33 h 1,7 UV-I 211 W/m 9,8 km/h
30.04.2017 12,0 C 48 % 1012,1 hPa 0,0 l/m 13,3 km/h O 11,17 h 2,9 UV-I 426 W/m 25,4 km/h
01.05.2017 10,7 C 73 % 1012,6 hPa 0,2 l/m 6,0 km/h O 3,25 h 1,8 UV-I 239 W/m 13,0 km/h
02.05.2017 8,5 C 93 % 1015,3 hPa 6,0 l/m 3,3 km/h NO 0,42 h 1,0 UV-I 85 W/m 7,3 km/h
03.05.2017 12,1 C 75 % 1019,7 hPa 0,4 l/m 5,5 km/h NO 4,67 h 2,4 UV-I 267 W/m 11,8 km/h
04.05.2017 9,4 C 84 % 1018,6 hPa 0,2 l/m 5,2 km/h NO 0,58 h 1,2 UV-I 121 W/m 11,4 km/h
05.05.2017 8,9 C 88 % 1019,6 hPa 0,2 l/m 3,9 km/h NW 0,58 h 0,9 UV-I 94 W/m 6,9 km/h
06.05.2017 13,6 C 74 % 1012,0 hPa 0,0 l/m 8,7 km/h O-NO 8,25 h 3,0 UV-I 405 W/m 17,0 km/h
07.05.2017 14,9 C 71 % 1013,4 hPa 0,0 l/m 3,7 km/h O 5,08 h 2,2 UV-I 257 W/m 7,7 km/h
08.05.2017 8,8 C 85 % 1019,0 hPa 1,0 l/m 6,4 km/h W 0,25 h 1,2 UV-I 106 W/m 12,1 km/h
09.05.2017 9,0 C 58 % 1017,9 hPa 0,0 l/m 5,4 km/h W-NW 6,50 h 2,6 UV-I 349 W/m 11,8 km/h
10.05.2017 10,8 C 60 % 1008,2 hPa 0,0 l/m 5,0 km/h W 11,67 h 3,2 UV-I 452 W/m 10,5 km/h
11.05.2017 17,8 C 55 % 999,4 hPa 0,0 l/m 7,5 km/h O 7,75 h 2,8 UV-I 373 W/m 16,2 km/h
12.05.2017 15,4 C 84 % 1002,9 hPa 6,2 l/m 4,8 km/h O-SO 3,83 h 1,9 UV-I 200 W/m 9,8 km/h
13.05.2017 16,8 C 75 % 1011,2 hPa 1,8 l/m 5,9 km/h O 6,33 h 2,8 UV-I 316 W/m 15,4 km/h
14.05.2017 17,6 C 67 % 1021,1 hPa 0,8 l/m 9,7 km/h SW 6,00 h 2,8 UV-I 333 W/m 17,0 km/h
15.05.2017 17,2 C 58 % 1028,5 hPa 0,0 l/m 4,4 km/h W 11,35 h 3,4 UV-I 449 W/m 8,9 km/h
16.05.2017 20,9 C 55 % 1026,5 hPa 0,0 l/m 5,4 km/h O-SO 3,25 h 2,5 UV-I 262 W/m 11,0 km/h
17.05.2017 23,8 C 48 % 1016,9 hPa 0,0 l/m 8,9 km/h O 9,42 h 3,6 UV-I 415 W/m 16,6 km/h
18.05.2017 21,0 C 71 % 1010,3 hPa 0,0 l/m 6,1 km/h O 6,00 h 2,5 UV-I 271 W/m 11,8 km/h
19.05.2017 13,6 C 88 % 1011,8 hPa 12,8 l/m 5,7 km/h W-SW 0,00 h 1,0 UV-I 59 W/m 12,2 km/h
20.05.2017 15,2 C 62 % 1022,0 hPa 0,0 l/m 5,2 km/h SW 12,42 h 4,2 UV-I 580 W/m 11,5 km/h
21.05.2017 16,7 C 54 % 1025,2 hPa 0,0 l/m 4,3 km/h O-NO 8,75 h 3,2 UV-I 384 W/m 8,5 km/h
22.05.2017 19,1 C 53 % 1018,2 hPa 0,0 l/m 5,8 km/h O 12,17 h 3,5 UV-I 457 W/m 11,4 km/h
23.05.2017 19,2 C 56 % 1017,4 hPa 0,0 l/m 8,9 km/h W-SW 8,00 h 2,8 UV-I 329 W/m 19,0 km/h
24.05.2017 15,9 C 66 % 1022,2 hPa 0,0 l/m 5,4 km/h W-SW 5,92 h 2,1 UV-I 254 W/m 11,0 km/h
25.05.2017 17,1 C 70 % 1023,0 hPa 0,0 l/m 7,3 km/h W 5,58 h 3,3 UV-I 343 W/m 12,9 km/h
26.05.2017 21,3 C 58 % 1021,0 hPa 0,0 l/m 4,8 km/h O 11,83 h 3,9 UV-I 462 W/m 9,3 km/h
27.05.2017 23,8 C 52 % 1018,3 hPa 0,0 l/m 8,0 km/h O 13,00 h 3,9 UV-I 469 W/m 15,0 km/h
28.05.2017 21,9 C 75 % 1016,9 hPa 3,2 l/m 3,1 km/h O 4,58 h 1,9 UV-I 218 W/m 6,9 km/h
29.05.2017 27,5 C 57 % 1010,7 hPa 0,0 l/m 5,6 km/h O-SO 12,00 h 3,7 UV-I 430 W/m 9,3 km/h
30.05.2017 21,8 C 74 % 1013,0 hPa 1,8 l/m 11,8 km/h W-SW 7,25 h 2,9 UV-I 325 W/m 21,4 km/h
31.05.2017 18,7 C 64 % 1020,4 hPa 0,0 l/m 7,5 km/h W-SW 4,67 h 2,7 UV-I 297 W/m 14,6 km/h
01.06.2017 19,8 C 53 % 1020,6 hPa 0,0 l/m 4,8 km/h W 13,17 h 3,9 UV-I 475 W/m 8,1 km/h
02.06.2017 22,6 C 57 % 1015,6 hPa 0,0 l/m 4,5 km/h O 9,00 h 3,5 UV-I 407 W/m 9,3 km/h
03.06.2017 21,4 C 69 % 1010,9 hPa 0,0 l/m 5,8 km/h W-SW 3,75 h 2,7 UV-I 258 W/m 10,1 km/h
04.06.2017 16,7 C 72 % 1014,0 hPa 1,6 l/m 8,0 km/h W-SW 3,58 h 2,8 UV-I 297 W/m 13,8 km/h
05.06.2017 18,4 C 57 % 1011,7 hPa 0,0 l/m 4,1 km/h W-SW 10,83 h 3,2 UV-I 407 W/m 6,9 km/h
06.06.2017 16,5 C 63 % 1002,3 hPa 0,4 l/m 8,9 km/h O-SO 5,83 h 1,9 UV-I 242 W/m 20,2 km/h
07.06.2017 13,9 C 71 % 1011,7 hPa 2,4 l/m 9,9 km/h SW 2,08 h 2,0 UV-I 199 W/m 19,8 km/h
08.06.2017 18,8 C 61 % 1014,8 hPa 0,6 l/m 6,2 km/h S-SW 5,75 h 2,7 UV-I 268 W/m 12,2 km/h
09.06.2017 17,5 C 66 % 1012,8 hPa 4,2 l/m 7,1 km/h W-SW 5,92 h 2,0 UV-I 225 W/m 13,0 km/h
10.06.2017 19,6 C 54 % 1019,6 hPa 0,0 l/m 5,3 km/h W-SW 9,67 h 3,7 UV-I 406 W/m 10,6 km/h
11.06.2017 23,5 C 60 % 1013,8 hPa 0,4 l/m 5,3 km/h O-SO 7,33 h 3,5 UV-I 341 W/m 11,7 km/h
12.06.2017 17,3 C 59 % 1015,1 hPa 0,0 l/m 13,4 km/h W-SW 1,33 h 2,1 UV-I 229 W/m 22,2 km/h
13.06.2017 17,2 C 65 % 1018,4 hPa 0,0 l/m 8,5 km/h W-SW 1,42 h 2,0 UV-I 195 W/m 15,8 km/h
14.06.2017 19,9 C 56 % 1018,1 hPa 0,0 l/m 5,3 km/h SW 13,58 h 3,9 UV-I 475 W/m 12,6 km/h
15.06.2017 21,2 C 71 % 1013,2 hPa 24,2 l/m 4,9 km/h O 9,08 h 3,6 UV-I 379 W/m 12,9 km/h
16.06.2017 16,7 C 68 % 1019,5 hPa 0,2 l/m 12,4 km/h W-SW 1,08 h 1,8 UV-I 186 W/m 21,0 km/h
17.06.2017 15,6 C 87 % 1024,6 hPa 0,0 l/m 6,1 km/h W-SW 0,08 h 1,2 UV-I 101 W/m 11,8 km/h
18.06.2017 22,4 C 67 % 1023,9 hPa 0,0 l/m 2,5 km/h O-SO 7,33 h 3,2 UV-I 323 W/m 5,3 km/h
19.06.2017 26,0 C 52 % 1018,4 hPa 0,0 l/m 4,2 km/h O 13,42 h 4,0 UV-I 466 W/m 8,9 km/h
20.06.2017 23,9 C 60 % 1016,7 hPa 0,0 l/m 4,9 km/h O 10,42 h 3,5 UV-I 396 W/m 10,1 km/h
21.06.2017 23,1 C 56 % 1016,1 hPa 0,0 l/m 4,6 km/h NO 13,25 h 3,9 UV-I 451 W/m 7,3 km/h
22.06.2017 25,6 C 65 % 1008,3 hPa 7,4 l/m 8,3 km/h O 9,75 h 3,6 UV-I 395 W/m 17,4 km/h
23.06.2017 21,9 C 61 % 1013,5 hPa 0,2 l/m 11,0 km/h W-SW 7,00 h 2,8 UV-I 310 W/m 19,4 km/h
24.06.2017 18,5 C 74 % 1013,3 hPa 0,2 l/m 9,2 km/h SW 1,00 h 1,9 UV-I 163 W/m 19,8 km/h
25.06.2017 18,3 C 79 % 1010,7 hPa 1,0 l/m 6,2 km/h SW 1,25 h 1,8 UV-I 148 W/m 11,3 km/h
26.06.2017 18,6 C 61 % 1011,9 hPa 1,6 l/m 5,6 km/h W 6,75 h 3,3 UV-I 320 W/m 11,3 km/h
27.06.2017 18,9 C 72 % 1007,7 hPa 0,0 l/m 4,4 km/h O-NO 2,83 h 2,3 UV-I 226 W/m 9,8 km/h
28.06.2017 18,8 C 84 % 997,0 hPa 7,2 l/m 3,0 km/h O 1,17 h 1,2 UV-I 123 W/m 7,3 km/h
29.06.2017 18,1 C 86 % 997,3 hPa 1,4 l/m 4,5 km/h W 0,00 h 1,4 UV-I 144 W/m 7,7 km/h
30.06.2017 18,5 C 69 % 1003,2 hPa 1,8 l/m 9,8 km/h SW 2,83 h 2,2 UV-I 229 W/m 19,0 km/h
01.07.2017 16,0 C 92 % 1009,1 hPa 5,2 l/m 7,0 km/h SW 0,08 h 1,2 UV-I 95 W/m 13,8 km/h
02.07.2017 16,6 C 77 % 1017,9 hPa 3,0 l/m 8,0 km/h W-SW 1,08 h 1,5 UV-I 147 W/m 15,4 km/h
03.07.2017 19,0 C 60 % 1019,4 hPa 0,0 l/m 8,3 km/h W-SW 8,75 h 3,5 UV-I 405 W/m 15,0 km/h
04.07.2017 19,5 C 66 % 1019,4 hPa 0,0 l/m 5,4 km/h W 5,08 h 3,1 UV-I 318 W/m 9,3 km/h
05.07.2017 21,5 C 63 % 1017,1 hPa 0,0 l/m 5,0 km/h O-NO 8,67 h 3,3 UV-I 374 W/m 8,9 km/h
06.07.2017 23,3 C 60 % 1016,1 hPa 0,0 l/m 4,5 km/h O 10,25 h 3,7 UV-I 418 W/m 8,5 km/h
07.07.2017 23,4 C 71 % 1013,3 hPa 9,4 l/m 6,8 km/h W-SW 9,42 h 3,3 UV-I 363 W/m 14,2 km/h
08.07.2017 21,8 C 71 % 1015,2 hPa 0,0 l/m 6,6 km/h W-SW 5,17 h 3,3 UV-I 338 W/m 12,6 km/h
09.07.2017 22,2 C 71 % 1011,9 hPa 0,0 l/m 4,2 km/h NO 3,42 h 2,5 UV-I 259 W/m 8,9 km/h
10.07.2017 20,9 C 82 % 1006,9 hPa 13,8 l/m 5,5 km/h NO 1,83 h 2,4 UV-I 220 W/m 10,2 km/h
11.07.2017 19,2 C 70 % 1010,8 hPa 0,4 l/m 7,7 km/h SW 6,00 h 3,1 UV-I 330 W/m 13,4 km/h
12.07.2017 15,6 C 86 % 1011,5 hPa 25,4 l/m 6,9 km/h W 0,33 h 1,2 UV-I 87 W/m 13,4 km/h
13.07.2017 15,8 C 65 % 1020,8 hPa 0,0 l/m 3,5 km/h W-SW 5,92 h 2,8 UV-I 319 W/m 6,1 km/h
14.07.2017 16,3 C 74 % 1015,5 hPa 5,6 l/m 7,1 km/h W-SW 5,00 h 2,6 UV-I 260 W/m 12,6 km/h
15.07.2017 17,2 C 71 % 1021,7 hPa 0,2 l/m 4,4 km/h SW 3,92 h 2,6 UV-I 254 W/m 8,1 km/h
16.07.2017 19,9 C 73 % 1021,6 hPa 1,8 l/m 5,4 km/h SW 0,17 h 1,7 UV-I 160 W/m 11,4 km/h
17.07.2017 20,0 C 67 % 1021,4 hPa 2,8 l/m 4,3 km/h W 6,92 h 3,0 UV-I 323 W/m 8,1 km/h
18.07.2017 22,0 C 57 % 1018,0 hPa 0,0 l/m 4,6 km/h O-NO 12,83 h 3,9 UV-I 462 W/m 8,9 km/h
19.07.2017 22,7 C 70 % 1010,0 hPa 5,2 l/m 6,0 km/h O 9,33 h 3,7 UV-I 367 W/m 12,1 km/h
20.07.2017 23,0 C 65 % 1008,9 hPa 1,2 l/m 9,8 km/h SW 3,75 h 2,6 UV-I 243 W/m 17,4 km/h
21.07.2017 21,3 C 59 % 1012,7 hPa 0,0 l/m 4,9 km/h W-SW 9,25 h 3,5 UV-I 387 W/m 8,9 km/h
22.07.2017 22,1 C 72 % 1011,3 hPa 5,8 l/m 4,4 km/h O 5,82 h 3,0 UV-I 304 W/m 9,4 km/h
23.07.2017 19,0 C 65 % 1012,4 hPa 17,0 l/m 6,9 km/h SW 11,00 h 4,1 UV-I 520 W/m 17,7 km/h
24.07.2017 13,9 C 92 % 1008,7 hPa 14,8 l/m 4,2 km/h W 0,00 h 1,0 UV-I 72 W/m 7,7 km/h
25.07.2017 14,8 C 96 % 1005,5 hPa 17,4 l/m 8,8 km/h W 0,00 h 1,0 UV-I 77 W/m 18,6 km/h
26.07.2017 18,0 C 76 % 1007,8 hPa 0,0 l/m 4,8 km/h W 1,83 h 1,6 UV-I 144 W/m 9,8 km/h
27.07.2017 19,4 C 68 % 1006,6 hPa 0,8 l/m 7,7 km/h SW 4,25 h 2,4 UV-I 261 W/m 13,4 km/h
28.07.2017 19,1 C 62 % 1011,8 hPa 0,0 l/m 9,7 km/h SW 4,75 h 2,6 UV-I 281 W/m 19,4 km/h
29.07.2017 21,5 C 69 % 1011,2 hPa 0,0 l/m 9,9 km/h SW 2,68 h 2,9 UV-I 256 W/m 16,2 km/h
30.07.2017 23,7 C 59 % 1008,3 hPa 0,4 l/m 8,6 km/h SW 8,17 h 3,1 UV-I 355 W/m 16,2 km/h
31.07.2017 22,1 C 55 % 1013,3 hPa 0,0 l/m 6,2 km/h W-SW 9,68 h 3,2 UV-I 392 W/m 10,1 km/h
01.08.2017 20,9 C 77 % 1014,4 hPa 3,6 l/m 4,6 km/h W 1,93 h 1,9 UV-I 187 W/m 7,7 km/h
02.08.2017 20,7 C 75 % 1016,5 hPa 1,6 l/m 4,9 km/h O-NO 3,58 h 2,7 UV-I 268 W/m 8,5 km/h
03.08.2017 22,3 C 67 % 1009,5 hPa 3,0 l/m 9,2 km/h SW 4,50 h 2,7 UV-I 266 W/m 17,4 km/h
04.08.2017 20,6 C 60 % 1012,0 hPa 0,0 l/m 10,0 km/h SW 3,50 h 2,5 UV-I 253 W/m 19,0 km/h
05.08.2017 15,8 C 88 % 1015,1 hPa 16,8 l/m 4,6 km/h W-SW 0,58 h 1,6 UV-I 108 W/m 10,2 km/h
06.08.2017 18,1 C 60 % 1022,3 hPa 0,0 l/m 5,8 km/h W-SW 9,83 h 3,4 UV-I 418 W/m 10,1 km/h
07.08.2017 20,1 C 52 % 1017,5 hPa 0,0 l/m 4,8 km/h O 9,08 h 3,3 UV-I 390 W/m 8,9 km/h
08.08.2017 19,9 C 69 % 1009,6 hPa 0,2 l/m 7,7 km/h O 4,00 h 1,8 UV-I 211 W/m 15,8 km/h
09.08.2017 19,5 C 61 % 1015,9 hPa 0,0 l/m 3,8 km/h SW 7,17 h 2,9 UV-I 337 W/m 8,1 km/h
10.08.2017 16,9 C 81 % 1018,9 hPa 7,2 l/m 4,2 km/h O-NO 0,58 h 1,9 UV-I 155 W/m 9,4 km/h
11.08.2017 13,2 C 96 % 1015,3 hPa 24,6 l/m 3,9 km/h W-NW 0,00 h 0,7 UV-I 47 W/m 8,9 km/h
12.08.2017 15,6 C 88 % 1015,1 hPa 6,8 l/m 5,6 km/h SW 0,00 h 1,1 UV-I 94 W/m 12,6 km/h
13.08.2017 17,7 C 78 % 1020,2 hPa 1,0 l/m 3,9 km/h W 8,50 h 3,3 UV-I 386 W/m 7,7 km/h
14.08.2017 20,2 C 72 % 1019,1 hPa 0,0 l/m 6,1 km/h O 9,42 h 3,3 UV-I 386 W/m 13,4 km/h
15.08.2017 22,6 C 70 % 1014,9 hPa 0,0 l/m 6,9 km/h O 5,42 h 2,5 UV-I 263 W/m 12,5 km/h
16.08.2017 20,3 C 73 % 1020,3 hPa 0,0 l/m 5,4 km/h W 5,83 h 3,0 UV-I 318 W/m 11,0 km/h
17.08.2017 21,2 C 70 % 1015,3 hPa 0,0 l/m 4,0 km/h SW 4,25 h 2,3 UV-I 220 W/m 10,1 km/h
18.08.2017 17,9 C 87 % 1012,5 hPa 9,6 l/m 3,8 km/h S-SW 2,00 h 2,1 UV-I 164 W/m 8,7 km/h
19.08.2017 15,2 C 81 % 1017,2 hPa 2,2 l/m 5,7 km/h SW 5,67 h 2,6 UV-I 281 W/m 11,0 km/h
20.08.2017 15,6 C 78 % 1021,9 hPa 1,2 l/m 6,3 km/h SW 2,98 h 2,0 UV-I 221 W/m 12,1 km/h
21.08.2017 15,3 C 74 % 1022,6 hPa 0,0 l/m 3,8 km/h SW 8,02 h 2,4 UV-I 323 W/m 7,7 km/h
22.08.2017 16,4 C 70 % 1020,5 hPa 0,0 l/m 3,3 km/h O 7,23 h 2,7 UV-I 331 W/m 6,1 km/h
23.08.2017 20,0 C 63 % 1015,7 hPa 0,0 l/m 6,5 km/h O 10,50 h 3,3 UV-I 400 W/m 13,4 km/h
24.08.2017 20,1 C 70 % 1015,6 hPa 0,0 l/m 6,8 km/h W-SW 4,83 h 2,5 UV-I 276 W/m 11,0 km/h
25.08.2017 19,1 C 67 % 1017,5 hPa 0,0 l/m 2,8 km/h O-NO 8,42 h 2,9 UV-I 346 W/m 6,5 km/h
26.08.2017 21,5 C 75 % 1014,4 hPa 0,0 l/m 4,8 km/h W-SW 3,48 h 2,2 UV-I 221 W/m 8,5 km/h
27.08.2017 19,0 C 68 % 1018,2 hPa 0,0 l/m 4,0 km/h SW 7,55 h 3,0 UV-I 342 W/m 8,2 km/h
28.08.2017 20,1 C 62 % 1018,5 hPa 0,0 l/m 5,6 km/h O 11,33 h 3,3 UV-I 403 W/m 12,6 km/h
29.08.2017 23,9 C 63 % 1013,1 hPa 0,0 l/m 4,1 km/h O 10,67 h 3,1 UV-I 385 W/m 8,5 km/h
30.08.2017 24,0 C 70 % 1006,7 hPa 0,0 l/m 6,5 km/h O-SO 6,50 h 2,6 UV-I 289 W/m 13,0 km/h
31.08.2017 16,0 C 85 % 1015,8 hPa 7,0 l/m 7,8 km/h W-SW 1,08 h 1,2 UV-I 104 W/m 13,8 km/h
01.09.2017 14,8 C 78 % 1019,9 hPa 0,0 l/m 4,3 km/h NO 6,00 h 2,6 UV-I 273 W/m 8,5 km/h
02.09.2017 14,2 C 81 % 1019,1 hPa 0,4 l/m 5,7 km/h W-SW 4,67 h 2,2 UV-I 260 W/m 11,8 km/h
03.09.2017 14,7 C 73 % 1016,0 hPa 0,0 l/m 3,3 km/h O 9,50 h 2,8 UV-I 372 W/m 5,7 km/h
04.09.2017 16,3 C 69 % 1016,4 hPa 0,0 l/m 4,1 km/h O 9,00 h 2,9 UV-I 362 W/m 8,1 km/h
05.09.2017 19,6 C 74 % 1016,1 hPa 0,0 l/m 5,4 km/h O-SO 3,08 h 2,6 UV-I 215 W/m 12,6 km/h
06.09.2017 15,4 C 83 % 1014,1 hPa 2,8 l/m 9,9 km/h W-SW 0,92 h 1,5 UV-I 144 W/m 17,0 km/h
07.09.2017 15,4 C 76 % 1013,6 hPa 0,2 l/m 8,1 km/h W-SW 2,17 h 1,6 UV-I 191 W/m 16,6 km/h
08.09.2017 15,2 C 85 % 1002,4 hPa 4,6 l/m 6,3 km/h S-SW 0,00 h 1,1 UV-I 86 W/m 13,8 km/h
09.09.2017 14,7 C 82 % 997,9 hPa 5,4 l/m 5,6 km/h W-SW 3,17 h 2,2 UV-I 191 W/m 10,9 km/h
10.09.2017 14,8 C 70 % 1003,1 hPa 0,0 l/m 7,3 km/h S-SO 5,18 h 2,4 UV-I 267 W/m 15,4 km/h
11.09.2017 15,6 C 69 % 997,8 hPa 5,0 l/m 9,1 km/h SW 4,08 h 2,4 UV-I 243 W/m 17,0 km/h
12.09.2017 14,3 C 76 % 1005,8 hPa 2,2 l/m 9,7 km/h SW 4,17 h 2,3 UV-I 256 W/m 19,0 km/h
13.09.2017 13,7 C 81 % 998,9 hPa 7,6 l/m 13,2 km/h SW 3,50 h 2,1 UV-I 228 W/m 25,9 km/h
14.09.2017 11,6 C 86 % 1002,3 hPa 7,2 l/m 16,5 km/h W-SW 2,50 h 1,9 UV-I 201 W/m 30,7 km/h
15.09.2017 12,9 C 78 % 1010,8 hPa 0,6 l/m 6,3 km/h SW 5,00 h 2,2 UV-I 256 W/m 15,0 km/h
16.09.2017 12,1 C 76 % 1011,2 hPa 0,0 l/m 4,9 km/h SW 6,92 h 2,2 UV-I 287 W/m 10,6 km/h
17.09.2017 10,7 C 82 % 1013,0 hPa 0,0 l/m 3,5 km/h O 4,83 h 1,9 UV-I 236 W/m 7,8 km/h
18.09.2017 11,9 C 79 % 1014,5 hPa 0,8 l/m 4,7 km/h O-SO 3,75 h 1,8 UV-I 212 W/m 8,9 km/h
19.09.2017 12,3 C 82 % 1017,7 hPa 0,0 l/m 4,6 km/h SW 2,50 h 1,3 UV-I 161 W/m 8,1 km/h
20.09.2017 13,1 C 84 % 1020,4 hPa 1,0 l/m 4,2 km/h SW 0,75 h 1,3 UV-I 136 W/m 7,8 km/h
21.09.2017 13,1 C 78 % 1020,6 hPa 0,0 l/m 5,0 km/h O 7,17 h 2,0 UV-I 270 W/m 9,3 km/h
22.09.2017 15,3 C 75 % 1020,5 hPa 0,2 l/m 2,1 km/h O-SO 5,68 h 2,5 UV-I 278 W/m 4,5 km/h
23.09.2017 14,4 C 89 % 1022,9 hPa 0,0 l/m 2,2 km/h W 0,17 h 1,1 UV-I 108 W/m 4,9 km/h
24.09.2017 14,9 C 84 % 1022,6 hPa 0,0 l/m 2,9 km/h NO 1,00 h 1,8 UV-I 161 W/m 5,7 km/h
25.09.2017 13,6 C 90 % 1021,2 hPa 1,2 l/m 3,7 km/h O-NO 1,08 h 1,3 UV-I 138 W/m 6,1 km/h
26.09.2017 13,9 C 89 % 1022,8 hPa 0,6 l/m 4,5 km/h O-NO 4,40 h 1,7 UV-I 212 W/m 8,9 km/h
27.09.2017 14,5 C 87 % 1023,5 hPa 0,2 l/m 7,5 km/h O-NO 5,42 h 2,0 UV-I 246 W/m 13,8 km/h
28.09.2017 17,0 C 83 % 1022,9 hPa 0,0 l/m 7,7 km/h O 1,15 h 1,5 UV-I 141 W/m 15,0 km/h
29.09.2017 18,5 C 81 % 1019,6 hPa 0,0 l/m 6,5 km/h O 3,68 h 1,8 UV-I 179 W/m 13,8 km/h
30.09.2017 14,4 C 93 % 1016,2 hPa 11,6 l/m 6,4 km/h W-SW 0,05 h 0,9 UV-I 83 W/m 11,4 km/h
01.10.2017 13,6 C 78 % 1019,9 hPa 0,0 l/m 7,3 km/h O-SO 7,33 h 2,2 UV-I 293 W/m 13,8 km/h
02.10.2017 15,3 C 80 % 1011,8 hPa 3,6 l/m 9,2 km/h SW 2,08 h 1,7 UV-I 161 W/m 18,8 km/h
03.10.2017 12,6 C 85 % 1018,3 hPa 5,0 l/m 13,6 km/h W-SW 1,67 h 1,4 UV-I 156 W/m 23,4 km/h
04.10.2017 12,3 C 75 % 1018,4 hPa 0,0 l/m 16,3 km/h SW 0,17 h 1,1 UV-I 112 W/m 29,5 km/h
05.10.2017 11,2 C 86 % 1009,6 hPa 9,4 l/m 14,9 km/h W-SW 1,50 h 1,5 UV-I 112 W/m 26,3 km/h
06.10.2017 10,4 C 90 % 1017,3 hPa 3,6 l/m 13,6 km/h W-SW 0,42 h 1,0 UV-I 102 W/m 23,0 km/h
07.10.2017 10,4 C 90 % 1013,6 hPa 7,2 l/m 10,6 km/h SW 0,00 h 0,9 UV-I 74 W/m 22,2 km/h
08.10.2017 10,9 C 88 % 1016,3 hPa 2,4 l/m 7,0 km/h W-SW 1,83 h 1,2 UV-I 128 W/m 12,2 km/h
09.10.2017 10,8 C 89 % 1018,0 hPa 3,0 l/m 6,2 km/h SW 2,58 h 1,5 UV-I 163 W/m 12,6 km/h
10.10.2017 13,5 C 89 % 1015,0 hPa 4,6 l/m 8,6 km/h SW 0,33 h 1,1 UV-I 60 W/m 17,0 km/h
11.10.2017 14,5 C 79 % 1014,9 hPa 0,0 l/m 9,8 km/h SW 0,00 h 0,8 UV-I 51 W/m 17,8 km/h
12.10.2017 13,8 C 78 % 1020,3 hPa 1,0 l/m 12,9 km/h W-SW 3,50 h 1,3 UV-I 167 W/m 22,7 km/h
13.10.2017 15,1 C 82 % 1024,7 hPa 0,0 l/m 6,1 km/h S-SW 1,73 h 1,2 UV-I 130 W/m 12,5 km/h
14.10.2017 17,3 C 80 % 1025,8 hPa 0,0 l/m 4,8 km/h SW 7,92 h 2,0 UV-I 258 W/m 11,0 km/h
15.10.2017 17,4 C 77 % 1022,7 hPa 0,0 l/m 5,0 km/h O 8,25 h 1,9 UV-I 265 W/m 10,2 km/h
16.10.2017 18,9 C 71 % 1021,6 hPa 0,0 l/m 5,4 km/h O-SO 6,58 h 1,7 UV-I 222 W/m 11,4 km/h
17.10.2017 15,5 C 82 % 1019,5 hPa 0,0 l/m 2,5 km/h O 0,00 h 0,7 UV-I 144 W/m 4,9 km/h
18.10.2017 15,8 C 82 % 1013,2 hPa 0,2 l/m 2,2 km/h O 7,92 h 1,8 UV-I 245 W/m 4,1 km/h
19.10.2017 15,9 C 75 % 1011,0 hPa 0,0 l/m 3,7 km/h O 7,67 h 1,7 UV-I 228 W/m 8,1 km/h
20.10.2017 14,9 C 72 % 1011,2 hPa 2,2 l/m 9,9 km/h O-SO 1,08 h 1,0 UV-I 86 W/m 17,4 km/h
21.10.2017 13,6 C 80 % 1011,7 hPa 1,8 l/m 5,5 km/h SO 1,00 h 0,8 UV-I 91 W/m 10,1 km/h
22.10.2017 10,4 C 82 % 1011,8 hPa 4,0 l/m 9,8 km/h SW 0,00 h 0,7 UV-I 43 W/m 18,2 km/h
23.10.2017 11,1 C 86 % 1018,1 hPa 2,4 l/m 9,3 km/h W-SW 0,17 h 1,0 UV-I 72 W/m 19,4 km/h
24.10.2017 14,4 C 87 % 1020,6 hPa 0,4 l/m 6,9 km/h S-SW 0,08 h 0,9 UV-I 69 W/m 15,0 km/h
25.10.2017 14,8 C 88 % 1021,1 hPa 1,0 l/m 9,0 km/h SW 0,42 h 0,9 UV-I 84 W/m 17,0 km/h
26.10.2017 14,2 C 86 % 1022,3 hPa 0,2 l/m 6,2 km/h W-SW 1,25 h 1,0 UV-I 114 W/m 11,8 km/h
27.10.2017 10,9 C 85 % 1025,3 hPa 0,6 l/m 11,4 km/h W 1,00 h 1,0 UV-I 106 W/m 20,6 km/h
28.10.2017 9,9 C 90 % 1013,9 hPa 1,4 l/m 21,7 km/h W-SW 0,00 h 0,6 UV-I 45 W/m 37,1 km/h
29.10.2017 8,0 C 80 % 1012,9 hPa 10,8 l/m 15,0 km/h W-SW 3,18 h 1,1 UV-I 122 W/m 25,9 km/h
30.10.2017 7,1 C 85 % 1025,3 hPa 0,0 l/m 8,5 km/h W 2,83 h 1,2 UV-I 156 W/m 15,8 km/h
31.10.2017 7,8 C 90 % 1024,6 hPa 1,0 l/m 6,8 km/h SW 0,33 h 0,8 UV-I 79 W/m 12,2 km/h
01.11.2017 11,3 C 82 % 1019,3 hPa 4,2 l/m 6,4 km/h SW 0,75 h 0,8 UV-I 74 W/m 13,4 km/h
02.11.2017 10,5 C 86 % 1013,5 hPa 0,4 l/m 5,8 km/h SW 0,33 h 0,8 UV-I 72 W/m 10,6 km/h
03.11.2017 9,0 C 90 % 1015,4 hPa 0,2 l/m 2,6 km/h O-SO 0,42 h 0,7 UV-I 73 W/m 5,7 km/h
04.11.2017 11,9 C 82 % 1006,7 hPa 0,0 l/m 8,4 km/h O-SO 1,92 h 1,0 UV-I 126 W/m 16,6 km/h
05.11.2017 7,6 C 90 % 1010,5 hPa 11,4 l/m 6,2 km/h W-SW 0,00 h 0,5 UV-I 38 W/m 12,2 km/h
06.11.2017 5,2 C 91 % 1024,7 hPa 0,0 l/m 2,6 km/h W-SW 0,00 h 0,6 UV-I 50 W/m 5,3 km/h
07.11.2017 6,1 C 89 % 1021,3 hPa 0,0 l/m 6,0 km/h O 1,42 h 0,9 UV-I 103 W/m 13,0 km/h
08.11.2017 7,8 C 90 % 1019,5 hPa 0,0 l/m 3,9 km/h NO 0,00 h 0,0 UV-I 22 W/m 6,5 km/h
09.11.2017 7,6 C 86 % 1021,5 hPa 0,0 l/m 7,2 km/h W-SW 0,00 h 0,6 UV-I 54 W/m 12,6 km/h
10.11.2017 7,3 C 89 % 1012,5 hPa 4,6 l/m 10,7 km/h W-SW 0,00 h 0,6 UV-I 23 W/m 19,8 km/h
11.11.2017 5,3 C 92 % 1008,0 hPa 1,2 l/m 11,0 km/h W-SW 0,17 h 0,6 UV-I 46 W/m 19,8 km/h
12.11.2017 4,0 C 93 % 1003,1 hPa 5,8 l/m 4,8 km/h SW 0,00 h 0,6 UV-I 34 W/m 10,6 km/h
13.11.2017 6,1 C 87 % 1017,6 hPa 0,0 l/m 6,4 km/h W-SW 2,92 h 1,0 UV-I 132 W/m 12,6 km/h
14.11.2017 6,4 C 88 % 1023,9 hPa 0,6 l/m 5,9 km/h SW 1,93 h 0,8 UV-I 105 W/m 12,2 km/h
15.11.2017 8,6 C 89 % 1025,5 hPa 1,6 l/m 5,1 km/h SW 0,00 h 0,6 UV-I 51 W/m 10,9 km/h
16.11.2017 7,9 C 89 % 1023,2 hPa 0,2 l/m 1,8 km/h O 0,42 h 0,8 UV-I 92 W/m 4,9 km/h
17.11.2017 6,3 C 85 % 1025,3 hPa 1,0 l/m 4,3 km/h W-SW 4,08 h 0,9 UV-I 130 W/m 9,3 km/h
18.11.2017 5,3 C 82 % 1016,1 hPa 2,6 l/m 13,3 km/h SW 0,17 h 0,6 UV-I 45 W/m 25,0 km/h
19.11.2017 4,7 C 90 % 1015,8 hPa 3,4 l/m 12,0 km/h W-SW 0,25 h 0,6 UV-I 43 W/m 20,6 km/h
20.11.2017 5,3 C 93 % 1013,9 hPa 9,8 l/m 5,7 km/h W-SW 0,00 h 0,6 UV-I 33 W/m 10,9 km/h
21.11.2017 10,1 C 95 % 1009,9 hPa 7,2 l/m 11,3 km/h SW 0,00 h 0,0 UV-I 22 W/m 20,2 km/h
22.11.2017 10,9 C 72 % 1006,2 hPa 0,0 l/m 9,0 km/h SW 2,50 h 0,8 UV-I 94 W/m 18,6 km/h
23.11.2017 11,8 C 79 % 1005,7 hPa 1,8 l/m 10,6 km/h SW 2,17 h 0,9 UV-I 95 W/m 21,4 km/h
24.11.2017 7,5 C 92 % 1009,9 hPa 8,2 l/m 4,1 km/h S-SW 0,00 h 0,0 UV-I 24 W/m 8,9 km/h
25.11.2017 4,6 C 92 % 1012,2 hPa 2,6 l/m 6,4 km/h SW 0,00 h 0,5 UV-I 33 W/m 13,0 km/h
26.11.2017 4,3 C 86 % 1020,0 hPa 0,4 l/m 11,2 km/h W-SW 0,00 h 0,5 UV-I 33 W/m 24,1 km/h
27.11.2017 5,9 C 86 % 1010,5 hPa 3,2 l/m 13,8 km/h SW 0,00 h 0,0 UV-I 27 W/m 24,6 km/h
28.11.2017 5,5 C 83 % 1004,3 hPa 2,6 l/m 8,1 km/h SW 0,58 h 0,7 UV-I 58 W/m 16,6 km/h
29.11.2017 2,8 C 87 % 1005,2 hPa 0,0 l/m 3,6 km/h W-SW 0,50 h 0,7 UV-I 67 W/m 7,0 km/h
30.11.2017 1,9 C 92 % 1004,4 hPa 2,6 l/m 3,7 km/h O-SO 0,00 h 0,0 UV-I 24 W/m 6,5 km/h
01.12.2017 2,3 C 91 % 1017,3 hPa 0,0 l/m 3,2 km/h O-NO 0,00 h 0,6 UV-I 50 W/m 6,1 km/h
02.12.2017 1,3 C 92 % 1026,2 hPa 0,0 l/m 3,2 km/h W 0,33 h 0,5 UV-I 44 W/m 7,3 km/h
03.12.2017 1,5 C 96 % 1022,9 hPa 7,4 l/m 5,5 km/h SW 0,00 h 0,0 UV-I 13 W/m 9,8 km/h
04.12.2017 6,0 C 94 % 1028,0 hPa 1,8 l/m 12,2 km/h W-SW 0,08 h 0,6 UV-I 38 W/m 19,8 km/h
05.12.2017 6,1 C 89 % 1031,8 hPa 0,2 l/m 15,1 km/h W-SW 0,00 h 0,0 UV-I 23 W/m 27,1 km/h
06.12.2017 7,3 C 77 % 1027,6 hPa 0,0 l/m 11,2 km/h W-SW 0,00 h 0,0 UV-I 19 W/m 21,8 km/h
07.12.2017 6,4 C 83 % 1010,5 hPa 2,2 l/m 8,4 km/h SW 2,08 h 0,7 UV-I 66 W/m 17,8 km/h
08.12.2017 2,4 C 86 % 1006,9 hPa 4,4 l/m 13,9 km/h W-SW 0,92 h 0,6 UV-I 48 W/m 25,8 km/h
09.12.2017 1,3 C 87 % 1009,5 hPa 1,4 l/m 14,4 km/h W-SW 0,00 h 0,0 UV-I 26 W/m 25,4 km/h
10.12.2017 3,5 C 83 % 983,0 hPa 3,4 l/m 12,9 km/h O-SO 0,00 h 0,5 UV-I 34 W/m 26,6 km/h
11.12.2017 5,0 C 85 % 981,7 hPa 2,0 l/m 7,2 km/h NO 0,00 h 0,0 UV-I 19 W/m 13,8 km/h
12.12.2017 2,1 C 92 % 1007,8 hPa 2,4 l/m 10,2 km/h W-SW 0,00 h 0,0 UV-I 31 W/m 19,4 km/h
13.12.2017 3,4 C 84 % 997,6 hPa 3,8 l/m 10,8 km/h SO 0,75 h 0,6 UV-I 42 W/m 21,0 km/h
14.12.2017 3,4 C 84 % 991,1 hPa 5,0 l/m 9,9 km/h SW 2,23 h 0,7 UV-I 91 W/m 19,4 km/h
15.12.2017 3,0 C 86 % 997,9 hPa 0,4 l/m 3,3 km/h W-SW 2,37 h 0,8 UV-I 95 W/m 6,1 km/h
16.12.2017 3,0 C 93 % 1010,9 hPa 0,6 l/m 11,0 km/h W-SW 0,00 h 0,5 UV-I 33 W/m 17,3 km/h
17.12.2017 2,4 C 91 % 1022,0 hPa 0,6 l/m 6,5 km/h W-SW 0,00 h 0,0 UV-I 25 W/m 11,4 km/h
18.12.2017 2,7 C 85 % 1025,2 hPa 3,6 l/m 3,6 km/h O 1,67 h 0,8 UV-I 86 W/m 7,8 km/h
19.12.2017 4,2 C 96 % 1032,6 hPa 1,0 l/m 5,4 km/h W-SW 0,00 h 0,0 UV-I 26 W/m 9,8 km/h
20.12.2017 6,0 C 97 % 1032,9 hPa 3,6 l/m 3,5 km/h W-SW 0,00 h 0,0 UV-I 28 W/m 8,1 km/h
21.12.2017 7,6 C 98 % 1033,0 hPa 1,2 l/m 2,8 km/h W-SW 0,00 h 0,0 UV-I 19 W/m 9,8 km/h
22.12.2017 7,2 C 92 % 1033,8 hPa 0,0 l/m 1,0 km/h W-SW 0,00 h 0,6 UV-I 61 W/m 3,7 km/h
23.12.2017 8,3 C 93 % 1029,4 hPa 0,0 l/m 14,6 km/h W-SW 0,00 h 0,0 UV-I 11 W/m 24,6 km/h
24.12.2017 8,7 C 88 % 1022,4 hPa 0,0 l/m 15,9 km/h W-SW 0,00 h 0,5 UV-I 34 W/m 29,1 km/h
25.12.2017 6,2 C 82 % 1013,3 hPa 0,0 l/m 4,6 km/h SW 0,00 h 0,0 UV-I 29 W/m 12,8 km/h
26.12.2017 6,8 C 74 % 999,7 hPa 1,2 l/m 10,6 km/h SW 0,75 h 0,6 UV-I 57 W/m 23,0 km/h
27.12.2017 5,0 C 83 % 985,5 hPa 0,0 l/m 6,3 km/h O-SO 2,17 h 0,7 UV-I 99 W/m 12,6 km/h
28.12.2017 3,3 C 81 % 999,4 hPa 0,0 l/m 14,8 km/h W-SW 1,00 h 0,6 UV-I 77 W/m 27,5 km/h
29.12.2017 2,3 C 83 % 1002,4 hPa 0,8 l/m 5,6 km/h SW 4,00 h 0,8 UV-I 116 W/m 13,0 km/h
30.12.2017 9,4 C 82 % 999,4 hPa 3,4 l/m 16,2 km/h SW 0,00 h 0,0 UV-I 29 W/m 35,9 km/h
31.12.2017 12,8 C 78 % 999,1 hPa 6,0 l/m 12,3 km/h SW 0,25 h 0,5 UV-I 41 W/m 28,7 km/h
Min-Datum 06.01.17 25.03.17 10.12.17 184 Tage 01.01.17 - - - - 01.01.17
Min-Zeit 08:35 15:35 19:45 - 05:35 - - - - 05:35
Minimum -7,8 C 23 % 975,4 hPa - 0,5 km/h - - - - 0,5 km/h
Max-Datum 22.06.17 08.01.17 06.01.17 12.07.17 05.10.17 - 19.06.17 10.06.17 07.06.17 05.10.17
Max-Zeit 13:45 07:05 09:50 15:35 14:00 - 20:15 14:10 13:05 13:55
Maximum 34,5 C 98 % 1042,2 hPa 25,4 l/m 40,5 km/h
W-SW
- 13,33 h 8,4 UV-I 1171 W/m 74,5 km/h
W-SW
Durchschnitt 11,6 C 76 % 1016,0 hPa #680,2 l/m 7,3 km/h W-SW #1346:15 h 1,8 UV-I 192 W/m 14,1 km/h

Durchschnitt Minimum Temp.8,3 C
Durchschnitt Maximum Temp.14,9 C

Jahr Standard-Abweichung:   + 11,58 K
Jahr Normal Wert:    0,00 C
Eistage (Tmax < 0C) :6
Frosttage (Tmin < 0C) :27
Kalte Tage (Tmax < 10C) :111
Sommertage (Tmax >= 25C) :42
Heie Tage (Tmax >= 30C) :6

Regen Tage
> 0,0 l/m184
> 2,0 l/m98
> 20,0 l/m3
Jahr Standard-Abweichung:   + 680,2 l/m
Jahr Normal Wert:    0,0 l/m

VerteilungWindrichtung
Windstille2,1 %
N-NO0,8 %
NO4,5 %
O-NO7,5 %
O10,7 %
O-SO7,3 %
SO4,0 %
S-SO3,6 %
S4,1 %
S-SW6,9 %
SW14,6 %
W-SW17,0 %
W11,2 %
W-NW4,5 %
NW2,0 %
N-NW0,8 %
N0,4 %